Newark, Texas
Current Conditions -  °F | °C
As of 3:53 PM on Monday 22 Dec 2014 (Local Time) from KAFW Reporting Station
Overcast Overcast  
Wind Chill: 58°   Ceiling: 22000
Heat Index: 58°   Visibility: 10mi
Dew Point: 44°   Wind: 15mph
Humidity: 60%   Direction: 310°NW
Pressure: 29.62"   Gusts: NA
Location:  33°N, 97.48°W
Report Text: KAFW 222153Z 31013KT 10SM SCT190 BKN220 OVC280 14/07 A2962 RMK AO2 SLP028 VIRGA T01440067
Loading
Personal Weather Stations






























Interactive Weather Map New forecast layout! Learn more

10-Day Weather Forecast

Advertisements
Track Severe Weather on mobile